Time;durP1;ratioP1;P1;durP2;ratioP2;P2;SDS_P1;SDS_P2;PMS_P1;PMS_P2;Temp;Humidity;BMP_temperature;BMP_pressure;BME280_temperature;BME280_humidity;BME280_pressure;Samples;Min_cycle;Max_cycle;Signal;HPM_P1;HPM_P2
2023/08/24 00:01:06;;;;;;;6.45;3.15;;;;;;;;;;5040081;28;20092;-75
2023/08/24 00:03:32;;;;;;;8.20;3.60;;;;;;;;;;5041032;28;20292;-75
2023/08/24 00:05:58;;;;;;;7.30;3.28;;;;;;;;;;5040853;28;20013;-75
2023/08/24 00:08:23;;;;;;;7.05;3.35;;;;;;;;;;5041248;28;20361;-76
2023/08/24 00:10:49;;;;;;;6.57;3.03;;;;;;;;;;5041008;28;20447;-75
2023/08/24 00:13:15;;;;;;;6.75;3.40;;;;;;;;;;5041037;28;20022;-77
2023/08/24 00:15:41;;;;;;;4.75;2.80;;;;;;;;;;5040796;28;20099;-76
2023/08/24 00:18:06;;;;;;;6.20;3.30;;;;;;;;;;5039708;28;20052;-75
2023/08/24 00:20:32;;;;;;;7.80;3.38;;;;;;;;;;5040376;28;20033;-76
2023/08/24 00:22:59;;;;;;;6.78;3.13;;;;;;;;;;5039245;28;20018;-77
2023/08/24 00:25:25;;;;;;;7.82;3.42;;;;;;;;;;5035169;28;20021;-80
2023/08/24 00:27:52;;;;;;;8.13;3.38;;;;;;;;;;5039287;28;20053;-74
2023/08/24 00:30:18;;;;;;;7.90;3.30;;;;;;;;;;5034363;28;20029;-73
2023/08/24 00:32:44;;;;;;;6.50;3.22;;;;;;;;;;5037526;28;20032;-83
2023/08/24 00:35:10;;;;;;;7.22;3.35;;;;;;;;;;5037240;28;20029;-83
2023/08/24 00:37:36;;;;;;;10.98;3.60;;;;;;;;;;5039453;28;20032;-73
2023/08/24 00:40:05;;;;;;;4.93;3.03;;;;;;;;;;5039601;28;20364;-78
2023/08/24 00:42:31;;;;;;;7.25;3.30;;;;;;;;;;5038852;28;20033;-75
2023/08/24 00:44:58;;;;;;;7.28;3.38;;;;;;;;;;5040106;28;20029;-79
2023/08/24 00:47:23;;;;;;;5.97;3.50;;;;;;;;;;5040714;28;20158;-75
2023/08/24 00:49:49;;;;;;;7.43;3.58;;;;;;;;;;5039673;28;20351;-82
2023/08/24 00:52:15;;;;;;;6.38;3.40;;;;;;;;;;5038910;28;20056;-74
2023/08/24 00:54:41;;;;;;;5.30;3.40;;;;;;;;;;5039387;28;20029;-82
2023/08/24 00:57:06;;;;;;;7.40;3.45;;;;;;;;;;5040277;28;20071;-79
2023/08/24 00:59:33;;;;;;;7.80;3.40;;;;;;;;;;5040170;28;20021;-84
2023/08/24 01:01:59;;;;;;;6.85;3.30;;;;;;;;;;5038101;28;20025;-75
2023/08/24 01:04:25;;;;;;;7.68;3.20;;;;;;;;;;5036538;28;20044;-84
2023/08/24 01:06:52;;;;;;;6.88;3.60;;;;;;;;;;5039023;28;20213;-82
2023/08/24 01:09:18;;;;;;;7.13;3.55;;;;;;;;;;5038503;28;20127;-80
2023/08/24 01:12:13;;;;;;;7.45;3.30;;;;;;;;;;5039182;28;20088;-75
2023/08/24 01:14:51;;;;;;;6.18;3.50;;;;;;;;;;5039270;28;20090;-82
2023/08/24 01:17:22;;;;;;;5.03;3.42;;;;;;;;;;5036376;28;20432;-74
2023/08/24 01:19:48;;;;;;;7.57;3.30;;;;;;;;;;5038938;28;20033;-79
2023/08/24 01:22:29;;;;;;;5.15;3.35;;;;;;;;;;5037916;28;20109;-75
2023/08/24 01:25:06;;;;;;;8.85;3.20;;;;;;;;;;5039376;28;20033;-75
2023/08/24 01:27:34;;;;;;;7.72;3.60;;;;;;;;;;5039001;28;20325;-74
2023/08/24 01:30:01;;;;;;;7.47;3.38;;;;;;;;;;5038717;28;20143;-75
2023/08/24 01:32:26;;;;;;;12.25;3.80;;;;;;;;;;5038744;28;20033;-82
2023/08/24 01:34:52;;;;;;;7.85;3.33;;;;;;;;;;5038381;28;20067;-78
2023/08/24 01:37:17;;;;;;;7.82;3.20;;;;;;;;;;5038772;28;20041;-83
2023/08/24 01:39:50;;;;;;;6.38;3.30;;;;;;;;;;5038899;28;20029;-81
2023/08/24 01:42:20;;;;;;;6.28;3.30;;;;;;;;;;5038367;28;20304;-83
2023/08/24 01:44:52;;;;;;;7.18;3.28;;;;;;;;;;5038690;28;20071;-83
2023/08/24 01:47:18;;;;;;;7.68;3.30;;;;;;;;;;5037427;28;20026;-83
2023/08/24 01:49:44;;;;;;;6.55;3.47;;;;;;;;;;5038431;28;20051;-82
2023/08/24 01:52:10;;;;;;;4.85;3.42;;;;;;;;;;5038021;28;20025;-82
2023/08/24 01:54:35;;;;;;;7.50;3.30;;;;;;;;;;5039061;28;20037;-77
2023/08/24 01:57:01;;;;;;;5.78;3.13;;;;;;;;;;5038634;28;20022;-81
2023/08/24 01:59:27;;;;;;;6.35;3.30;;;;;;;;;;5038256;28;20105;-82
2023/08/24 02:01:52;;;;;;;8.95;3.40;;;;;;;;;;5038299;28;20075;-82
2023/08/24 02:04:17;;;;;;;6.03;3.28;;;;;;;;;;5038400;28;20033;-82
2023/08/24 02:06:43;;;;;;;6.47;3.45;;;;;;;;;;5038484;28;20034;-86
2023/08/24 02:09:08;;;;;;;5.88;3.30;;;;;;;;;;5038040;28;20416;-81
2023/08/24 02:11:33;;;;;;;6.07;3.42;;;;;;;;;;5037320;28;20032;-79
2023/08/24 02:13:59;;;;;;;5.68;3.55;;;;;;;;;;5039018;28;20025;-83
2023/08/24 02:16:24;;;;;;;5.30;3.50;;;;;;;;;;5041873;28;20021;-83
2023/08/24 02:18:49;;;;;;;5.38;3.35;;;;;;;;;;5042017;28;20300;-78
2023/08/24 02:21:15;;;;;;;5.97;3.45;;;;;;;;;;5034997;28;20461;-74
2023/08/24 02:23:41;;;;;;;10.00;3.40;;;;;;;;;;5030969;28;20056;-78
2023/08/24 02:26:07;;;;;;;5.93;3.42;;;;;;;;;;5032145;28;20390;-74
2023/08/24 02:28:33;;;;;;;8.65;3.45;;;;;;;;;;5034297;28;20025;-77
2023/08/24 02:31:03;;;;;;;5.50;3.53;;;;;;;;;;5031888;28;20027;-86
2023/08/24 02:33:29;;;;;;;5.82;3.60;;;;;;;;;;5031602;28;20025;-83
2023/08/24 02:35:54;;;;;;;6.20;3.60;;;;;;;;;;5032125;28;20086;-84
2023/08/24 02:38:20;;;;;;;5.75;3.60;;;;;;;;;;5031093;28;20059;-84
2023/08/24 02:40:45;;;;;;;6.13;3.60;;;;;;;;;;5031465;28;20029;-78
2023/08/24 02:43:10;;;;;;;5.45;3.40;;;;;;;;;;5031127;28;20037;-87
2023/08/24 02:45:36;;;;;;;7.70;3.60;;;;;;;;;;5032083;28;20534;-77
2023/08/24 02:48:01;;;;;;;7.85;3.60;;;;;;;;;;5037793;28;20030;-75
2023/08/24 02:50:26;;;;;;;7.00;3.83;;;;;;;;;;5042821;28;20022;-79
2023/08/24 02:52:52;;;;;;;10.25;4.05;;;;;;;;;;5042248;28;20350;-76
2023/08/24 02:55:17;;;;;;;10.27;3.83;;;;;;;;;;5041069;28;20040;-79
2023/08/24 02:57:43;;;;;;;7.40;3.83;;;;;;;;;;5041798;28;20030;-75
2023/08/24 03:00:09;;;;;;;11.13;3.90;;;;;;;;;;5042318;28;20039;-74
2023/08/24 03:02:36;;;;;;;7.68;3.70;;;;;;;;;;5041153;28;20053;-75
2023/08/24 03:05:01;;;;;;;9.43;3.80;;;;;;;;;;5040346;28;20025;-77
2023/08/24 03:07:27;;;;;;;6.47;3.60;;;;;;;;;;5041270;28;20041;-75
2023/08/24 03:09:52;;;;;;;6.47;3.70;;;;;;;;;;5041020;28;20336;-77
2023/08/24 03:12:18;;;;;;;7.28;3.55;;;;;;;;;;5041377;28;20028;-80
2023/08/24 03:14:43;;;;;;;8.27;3.67;;;;;;;;;;5041398;28;20037;-79
2023/08/24 03:17:08;;;;;;;6.82;3.72;;;;;;;;;;5040989;28;20029;-72
2023/08/24 03:19:33;;;;;;;6.90;3.80;;;;;;;;;;5040724;28;20097;-72
2023/08/24 03:21:59;;;;;;;6.90;3.50;;;;;;;;;;5040432;28;20029;-73
2023/08/24 03:24:24;;;;;;;7.85;3.80;;;;;;;;;;5041085;28;20099;-75
2023/08/24 03:26:49;;;;;;;8.05;3.95;;;;;;;;;;5040013;28;20037;-75
2023/08/24 03:29:15;;;;;;;7.70;4.00;;;;;;;;;;5041226;28;20038;-74
2023/08/24 03:31:40;;;;;;;8.65;3.90;;;;;;;;;;5040245;28;20064;-75
2023/08/24 03:34:05;;;;;;;6.93;3.67;;;;;;;;;;5040731;28;20029;-74
2023/08/24 03:36:31;;;;;;;11.63;3.75;;;;;;;;;;5040918;28;20029;-74
2023/08/24 03:38:56;;;;;;;8.80;4.03;;;;;;;;;;5039707;28;20017;-73
2023/08/24 03:41:21;;;;;;;8.50;3.95;;;;;;;;;;5040199;28;20121;-75
2023/08/24 03:43:47;;;;;;;7.32;3.70;;;;;;;;;;5040911;28;20289;-73
2023/08/24 03:46:12;;;;;;;7.97;3.80;;;;;;;;;;5040770;28;20313;-74
2023/08/24 03:48:37;;;;;;;9.00;4.07;;;;;;;;;;5040629;28;20013;-73
2023/08/24 03:51:03;;;;;;;8.15;3.70;;;;;;;;;;5040431;28;20309;-73
2023/08/24 03:53:28;;;;;;;6.00;3.78;;;;;;;;;;5040267;28;20021;-74
2023/08/24 03:55:54;;;;;;;27.17;4.88;;;;;;;;;;5039973;28;20025;-80
2023/08/24 03:58:19;;;;;;;41.60;5.65;;;;;;;;;;5040415;28;20040;-74
2023/08/24 04:00:44;;;;;;;45.75;5.70;;;;;;;;;;5038230;28;20025;-77
2023/08/24 04:03:11;;;;;;;21.42;4.63;;;;;;;;;;5034856;28;20033;-84
2023/08/24 04:05:36;;;;;;;21.33;4.35;;;;;;;;;;5028288;28;20029;-89
2023/08/24 04:08:02;;;;;;;12.95;3.97;;;;;;;;;;5021031;28;20029;-76
2023/08/24 04:10:28;;;;;;;13.82;3.90;;;;;;;;;;5030034;28;20025;-79
2023/08/24 04:12:54;;;;;;;13.70;4.20;;;;;;;;;;5029723;28;20490;-79
2023/08/24 04:15:19;;;;;;;9.95;3.88;;;;;;;;;;5030006;28;20038;-84
2023/08/24 04:17:44;;;;;;;7.00;4.20;;;;;;;;;;5030036;28;20035;-82
2023/08/24 04:20:11;;;;;;;8.23;4.07;;;;;;;;;;5029348;28;20564;-77
2023/08/24 04:22:36;;;;;;;9.82;3.97;;;;;;;;;;5029375;28;20784;-78
2023/08/24 04:25:02;;;;;;;9.30;4.30;;;;;;;;;;5029663;28;20029;-84
2023/08/24 04:27:27;;;;;;;10.48;3.97;;;;;;;;;;5028947;28;20077;-78
2023/08/24 04:29:53;;;;;;;11.77;3.75;;;;;;;;;;5029557;28;20025;-84
2023/08/24 04:32:18;;;;;;;8.07;3.92;;;;;;;;;;5027690;28;20022;-87
2023/08/24 04:34:43;;;;;;;9.63;4.40;;;;;;;;;;5029564;28;20041;-85
2023/08/24 04:37:09;;;;;;;10.82;5.53;;;;;;;;;;5028368;28;20033;-82
2023/08/24 04:39:35;;;;;;;7.32;4.30;;;;;;;;;;5028991;28;20040;-78
2023/08/24 04:42:00;;;;;;;8.50;3.85;;;;;;;;;;5028809;28;20045;-86
2023/08/24 04:44:25;;;;;;;8.38;3.97;;;;;;;;;;5027847;28;20037;-83
2023/08/24 04:46:51;;;;;;;12.10;4.03;;;;;;;;;;5028686;28;20045;-78
2023/08/24 04:49:16;;;;;;;8.93;4.32;;;;;;;;;;5029077;28;20044;-76
2023/08/24 04:51:41;;;;;;;7.45;4.00;;;;;;;;;;5040885;28;20055;-87
2023/08/24 04:54:07;;;;;;;8.40;4.47;;;;;;;;;;5028630;28;20056;-85
2023/08/24 04:56:32;;;;;;;8.45;4.60;;;;;;;;;;5029016;28;20060;-90
2023/08/24 04:59:00;;;;;;;9.02;4.80;;;;;;;;;;5029659;28;20117;-88
2023/08/24 05:01:31;;;;;;;8.63;4.40;;;;;;;;;;5029158;28;20155;-89
2023/08/24 05:03:56;;;;;;;8.82;4.75;;;;;;;;;;5029108;28;20147;-90
2023/08/24 05:06:22;;;;;;;10.95;4.55;;;;;;;;;;5024472;28;20125;-90
2023/08/24 05:08:47;;;;;;;9.27;4.40;;;;;;;;;;5029520;28;20056;-88
2023/08/24 05:11:21;;;;;;;8.05;4.43;;;;;;;;;;5028775;28;20044;-89
2023/08/24 05:13:47;;;;;;;9.75;4.53;;;;;;;;;;5029083;28;20105;-91
2023/08/24 05:16:13;;;;;;;8.18;4.60;;;;;;;;;;5028608;28;20116;-90
2023/08/24 05:18:39;;;;;;;8.13;4.47;;;;;;;;;;5029029;28;20106;-90
2023/08/24 05:21:04;;;;;;;6.28;4.28;;;;;;;;;;5029461;28;20064;-88
2023/08/24 05:23:31;;;;;;;8.95;4.65;;;;;;;;;;5027592;28;20029;-79
2023/08/24 05:25:57;;;;;;;8.27;4.55;;;;;;;;;;5027616;28;20029;-83
2023/08/24 05:28:26;;;;;;;10.57;4.55;;;;;;;;;;5026692;28;20116;-80
2023/08/24 05:30:52;;;;;;;7.05;4.25;;;;;;;;;;5028220;28;20508;-84
2023/08/24 05:33:19;;;;;;;6.15;4.43;;;;;;;;;;5028460;28;20037;-85
2023/08/24 05:35:44;;;;;;;9.40;4.50;;;;;;;;;;5020914;28;20033;-83
2023/08/24 05:38:10;;;;;;;7.80;4.20;;;;;;;;;;5027833;28;20033;-83
2023/08/24 05:40:36;;;;;;;7.05;4.22;;;;;;;;;;5028323;28;20721;-82
2023/08/24 05:43:02;;;;;;;8.55;4.50;;;;;;;;;;5028371;28;20076;-84
2023/08/24 05:45:27;;;;;;;10.77;4.28;;;;;;;;;;5027598;28;20049;-81
2023/08/24 05:47:53;;;;;;;10.13;4.60;;;;;;;;;;5028308;28;20414;-84
2023/08/24 05:50:18;;;;;;;7.22;4.10;;;;;;;;;;5030728;28;20048;-82
2023/08/24 05:52:43;;;;;;;9.23;4.40;;;;;;;;;;5031680;28;20038;-84
2023/08/24 05:55:09;;;;;;;11.32;4.40;;;;;;;;;;5031685;28;20038;-83
2023/08/24 05:57:35;;;;;;;7.80;4.35;;;;;;;;;;5032127;28;20024;-79
2023/08/24 06:00:00;;;;;;;10.20;4.68;;;;;;;;;;5031729;28;20029;-85
2023/08/24 06:02:25;;;;;;;10.00;4.35;;;;;;;;;;5032055;28;20026;-85
2023/08/24 06:04:51;;;;;;;7.97;4.60;;;;;;;;;;5031923;28;20021;-81
2023/08/24 06:07:17;;;;;;;12.95;4.60;;;;;;;;;;5031049;28;20099;-83
2023/08/24 06:09:42;;;;;;;9.13;4.40;;;;;;;;;;5032005;28;20049;-84
2023/08/24 06:12:08;;;;;;;7.35;4.45;;;;;;;;;;5031878;28;20119;-82
2023/08/24 06:14:33;;;;;;;5.85;4.10;;;;;;;;;;5031593;28;20140;-83
2023/08/24 06:16:58;;;;;;;7.80;4.13;;;;;;;;;;5031856;28;20508;-85
2023/08/24 06:19:24;;;;;;;9.20;4.00;;;;;;;;;;5025436;28;20041;-81
2023/08/24 06:21:49;;;;;;;9.00;4.13;;;;;;;;;;5031382;28;20061;-81
2023/08/24 06:24:14;;;;;;;6.57;4.03;;;;;;;;;;5031568;28;20046;-82
2023/08/24 06:26:40;;;;;;;9.63;4.25;;;;;;;;;;5031604;28;20101;-74
2023/08/24 06:29:05;;;;;;;7.63;4.22;;;;;;;;;;5031086;28;20124;-79
2023/08/24 06:31:31;;;;;;;9.38;4.13;;;;;;;;;;5031082;28;20028;-81
2023/08/24 06:33:56;;;;;;;8.52;4.20;;;;;;;;;;5031208;28;20128;-74
2023/08/24 06:36:22;;;;;;;6.10;4.00;;;;;;;;;;5031359;28;20514;-78
2023/08/24 06:38:47;;;;;;;6.40;3.70;;;;;;;;;;5030830;28;20030;-84
2023/08/24 06:41:12;;;;;;;5.50;3.63;;;;;;;;;;5030784;28;20080;-84
2023/08/24 06:43:38;;;;;;;8.07;4.00;;;;;;;;;;5031221;28;20026;-75
2023/08/24 06:46:07;;;;;;;10.82;4.15;;;;;;;;;;5029543;28;20013;-73
2023/08/24 06:48:37;;;;;;;8.05;3.90;;;;;;;;;;5030707;28;20091;-83
2023/08/24 06:51:02;;;;;;;9.43;4.13;;;;;;;;;;5031128;28;20021;-82
2023/08/24 06:53:28;;;;;;;8.27;4.07;;;;;;;;;;5035867;28;20047;-76
2023/08/24 06:55:57;;;;;;;9.18;4.13;;;;;;;;;;5031295;28;20121;-81
2023/08/24 06:58:22;;;;;;;8.60;4.10;;;;;;;;;;5030248;28;20083;-81
2023/08/24 07:00:50;;;;;;;6.82;3.92;;;;;;;;;;5029579;28;20026;-73
2023/08/24 07:03:16;;;;;;;7.90;4.05;;;;;;;;;;5033795;28;20248;-81
2023/08/24 07:05:42;;;;;;;7.50;4.10;;;;;;;;;;5033119;28;20117;-79
2023/08/24 07:08:07;;;;;;;7.53;4.00;;;;;;;;;;5028906;28;20183;-85
2023/08/24 07:10:32;;;;;;;11.30;3.85;;;;;;;;;;5030662;28;20025;-80
2023/08/24 07:12:58;;;;;;;7.95;3.80;;;;;;;;;;5030978;28;20041;-78
2023/08/24 07:15:24;;;;;;;8.93;3.95;;;;;;;;;;5033097;28;20048;-83
2023/08/24 07:17:49;;;;;;;7.50;4.03;;;;;;;;;;5030014;28;20013;-84
2023/08/24 07:20:15;;;;;;;7.35;3.90;;;;;;;;;;5030366;28;20175;-79
2023/08/24 07:22:40;;;;;;;6.38;3.90;;;;;;;;;;5029441;28;20026;-76
2023/08/24 07:25:06;;;;;;;7.07;4.00;;;;;;;;;;5030446;28;20037;-77
2023/08/24 07:27:35;;;;;;;7.75;4.07;;;;;;;;;;5030072;28;20029;-81
2023/08/24 07:30:05;;;;;;;6.38;3.90;;;;;;;;;;5030686;28;20036;-80
2023/08/24 07:32:31;;;;;;;6.88;4.22;;;;;;;;;;5030199;28;20026;-77
2023/08/24 07:34:57;;;;;;;7.60;3.90;;;;;;;;;;5029966;28;20040;-77
2023/08/24 07:37:22;;;;;;;7.97;3.75;;;;;;;;;;5029141;28;20033;-81
2023/08/24 07:39:47;;;;;;;6.78;3.80;;;;;;;;;;5029058;28;20022;-77
2023/08/24 07:42:13;;;;;;;8.63;3.70;;;;;;;;;;5029601;28;20041;-81
2023/08/24 07:44:38;;;;;;;7.70;3.80;;;;;;;;;;5027089;28;20156;-81
2023/08/24 07:47:03;;;;;;;9.50;3.75;;;;;;;;;;5030057;28;20052;-80
2023/08/24 07:49:29;;;;;;;7.75;4.10;;;;;;;;;;5030000;28;20029;-82
2023/08/24 07:51:55;;;;;;;8.57;3.63;;;;;;;;;;5029714;28;20029;-73
2023/08/24 07:54:20;;;;;;;7.63;4.22;;;;;;;;;;5029437;28;20068;-75
2023/08/24 07:56:46;;;;;;;8.63;4.03;;;;;;;;;;5026702;28;20616;-76
2023/08/24 07:59:11;;;;;;;10.35;3.92;;;;;;;;;;5029467;28;20108;-74
2023/08/24 08:01:37;;;;;;;10.80;3.83;;;;;;;;;;5029879;28;20092;-73
2023/08/24 08:04:02;;;;;;;8.63;3.60;;;;;;;;;;5029780;28;20036;-73
2023/08/24 08:06:27;;;;;;;9.07;4.00;;;;;;;;;;5029677;28;20026;-76
2023/08/24 08:08:53;;;;;;;6.18;3.60;;;;;;;;;;5030720;28;20021;-78
2023/08/24 08:11:19;;;;;;;9.35;4.00;;;;;;;;;;5029402;28;20104;-75
2023/08/24 08:13:44;;;;;;;7.47;3.55;;;;;;;;;;5029037;28;20104;-74
2023/08/24 08:16:09;;;;;;;9.60;3.65;;;;;;;;;;5029563;28;20029;-75
2023/08/24 08:18:36;;;;;;;6.55;3.50;;;;;;;;;;5030685;28;20029;-82
2023/08/24 08:21:03;;;;;;;6.72;3.90;;;;;;;;;;5029518;28;20029;-75
2023/08/24 08:23:28;;;;;;;8.32;3.75;;;;;;;;;;5027779;28;20107;-81
2023/08/24 08:25:54;;;;;;;6.55;3.30;;;;;;;;;;5028733;28;20117;-83
2023/08/24 08:28:19;;;;;;;8.02;3.90;;;;;;;;;;5032150;28;20036;-81
2023/08/24 08:30:47;;;;;;;7.68;3.70;;;;;;;;;;5030542;28;20108;-79
2023/08/24 08:33:12;;;;;;;7.40;3.60;;;;;;;;;;5028548;28;20025;-78
2023/08/24 08:35:40;;;;;;;10.32;3.67;;;;;;;;;;5029020;28;20040;-83
2023/08/24 08:38:07;;;;;;;7.65;3.55;;;;;;;;;;5023297;28;20084;-81
2023/08/24 08:40:36;;;;;;;15.05;3.78;;;;;;;;;;5029007;28;20047;-81
2023/08/24 08:43:01;;;;;;;6.10;3.72;;;;;;;;;;5027242;28;20034;-84
2023/08/24 08:45:28;;;;;;;7.78;3.80;;;;;;;;;;5033290;28;20043;-83
2023/08/24 08:47:57;;;;;;;8.98;3.70;;;;;;;;;;5034648;28;20029;-80
2023/08/24 08:50:23;;;;;;;7.93;3.83;;;;;;;;;;5031816;28;20128;-83
2023/08/24 08:52:48;;;;;;;11.65;3.88;;;;;;;;;;5030810;28;20456;-86
2023/08/24 08:55:15;;;;;;;7.88;3.63;;;;;;;;;;5030843;28;20029;-86
2023/08/24 08:57:42;;;;;;;7.68;3.78;;;;;;;;;;5028509;28;20466;-81
2023/08/24 09:00:10;;;;;;;5.55;3.55;;;;;;;;;;5023941;28;20076;-83
2023/08/24 09:02:36;;;;;;;7.53;3.60;;;;;;;;;;5026988;28;20095;-84
2023/08/24 09:05:01;;;;;;;9.48;3.30;;;;;;;;;;5028055;28;20474;-78
2023/08/24 09:07:27;;;;;;;8.20;3.40;;;;;;;;;;5027916;28;20065;-82
2023/08/24 09:09:52;;;;;;;8.68;3.60;;;;;;;;;;5028257;28;20053;-87
2023/08/24 09:12:18;;;;;;;10.95;3.70;;;;;;;;;;5029049;28;20477;-83
2023/08/24 09:14:43;;;;;;;8.18;3.40;;;;;;;;;;5028704;28;20079;-84
2023/08/24 09:17:09;;;;;;;5.82;3.70;;;;;;;;;;5027416;28;20033;-76
2023/08/24 09:19:35;;;;;;;9.88;3.95;;;;;;;;;;5027739;28;20028;-84
2023/08/24 09:22:01;;;;;;;15.68;4.00;;;;;;;;;;5026206;28;20496;-84
2023/08/24 09:24:34;;;;;;;7.68;3.80;;;;;;;;;;5029642;28;20466;-81
2023/08/24 09:27:03;;;;;;;13.48;4.22;;;;;;;;;;5032654;28;20086;-80
2023/08/24 09:29:36;;;;;;;13.40;4.38;;;;;;;;;;5032886;28;20040;-74
2023/08/24 09:32:01;;;;;;;15.27;4.40;;;;;;;;;;5031846;28;20056;-76
2023/08/24 09:34:27;;;;;;;9.43;3.80;;;;;;;;;;5031438;28;20393;-77
2023/08/24 09:36:52;;;;;;;12.77;4.60;;;;;;;;;;5032837;28;20369;-74
2023/08/24 09:39:19;;;;;;;14.40;4.28;;;;;;;;;;5031996;28;20474;-72
2023/08/24 09:41:47;;;;;;;9.32;4.30;;;;;;;;;;5028417;28;20505;-78
2023/08/24 09:44:13;;;;;;;10.25;4.50;;;;;;;;;;5032196;28;20536;-74
2023/08/24 09:46:40;;;;;;;10.75;4.10;;;;;;;;;;5030892;28;20029;-83
2023/08/24 09:49:07;;;;;;;15.10;3.78;;;;;;;;;;5030817;28;20037;-75
2023/08/24 09:51:37;;;;;;;9.23;3.88;;;;;;;;;;5031370;28;20405;-84
2023/08/24 09:54:08;;;;;;;10.35;3.92;;;;;;;;;;5031190;28;20375;-84
2023/08/24 09:56:39;;;;;;;9.90;4.10;;;;;;;;;;5031248;28;20048;-77
2023/08/24 09:59:27;;;;;;;20.98;4.40;;;;;;;;;;5030513;28;20035;-74
2023/08/24 10:01:56;;;;;;;11.88;3.80;;;;;;;;;;5027785;28;20040;-72
2023/08/24 10:04:23;;;;;;;8.02;3.90;;;;;;;;;;5030654;28;20031;-74
2023/08/24 10:07:05;;;;;;;8.57;3.50;;;;;;;;;;5029317;28;20032;-73
2023/08/24 10:09:37;;;;;;;12.38;4.10;;;;;;;;;;5031805;28;20123;-72
2023/08/24 10:12:05;;;;;;;11.10;3.67;;;;;;;;;;5030026;28;20037;-72
2023/08/24 10:15:03;;;;;;;15.23;4.00;;;;;;;;;;5029087;28;20079;-73
2023/08/24 10:17:30;;;;;;;12.00;4.03;;;;;;;;;;5029428;28;20025;-73
2023/08/24 10:19:56;;;;;;;6.18;3.78;;;;;;;;;;5029900;28;20485;-74
2023/08/24 10:22:22;;;;;;;11.27;4.63;;;;;;;;;;5030813;28;20474;-73
2023/08/24 10:24:48;;;;;;;10.15;3.85;;;;;;;;;;5031299;28;20072;-74
2023/08/24 10:27:14;;;;;;;12.52;4.20;;;;;;;;;;5030818;28;20034;-73
2023/08/24 10:29:40;;;;;;;9.50;3.90;;;;;;;;;;5031118;28;20382;-73
2023/08/24 10:32:06;;;;;;;14.20;4.30;;;;;;;;;;5030878;28;20493;-73
2023/08/24 10:34:32;;;;;;;8.85;3.70;;;;;;;;;;5031105;28;20033;-73
2023/08/24 10:37:08;;;;;;;9.38;4.10;;;;;;;;;;5030497;28;20034;-73
2023/08/24 10:39:35;;;;;;;9.55;4.00;;;;;;;;;;5030829;28;20036;-73
2023/08/24 10:42:04;;;;;;;8.40;3.92;;;;;;;;;;5031163;28;20134;-74
2023/08/24 10:44:43;;;;;;;11.10;3.97;;;;;;;;;;5029245;28;20057;-73
2023/08/24 10:47:19;;;;;;;11.68;3.85;;;;;;;;;;5030859;28;20021;-73
2023/08/24 10:50:00;;;;;;;13.90;4.25;;;;;;;;;;5029977;28;20478;-76
2023/08/24 10:52:29;;;;;;;10.52;4.30;;;;;;;;;;5030647;28;20722;-73
2023/08/24 10:54:56;;;;;;;8.88;3.95;;;;;;;;;;5031071;28;20592;-78
2023/08/24 10:57:35;;;;;;;10.48;4.25;;;;;;;;;;5030996;28;20033;-72
2023/08/24 11:00:09;;;;;;;8.93;4.00;;;;;;;;;;5029947;28;20041;-73
2023/08/24 11:02:51;;;;;;;11.17;4.30;;;;;;;;;;5029136;28;20091;-72
2023/08/24 11:05:24;;;;;;;10.40;4.68;;;;;;;;;;5027727;28;20604;-73
2023/08/24 11:07:51;;;;;;;9.32;4.40;;;;;;;;;;5030581;28;20026;-72
2023/08/24 11:10:17;;;;;;;9.38;4.53;;;;;;;;;;5030419;28;20072;-73
2023/08/24 11:13:04;;;;;;;10.27;4.40;;;;;;;;;;5029866;28;20065;-75
2023/08/24 11:15:33;;;;;;;11.90;4.70;;;;;;;;;;5023189;28;20068;-73
2023/08/24 11:18:24;;;;;;;10.70;4.53;;;;;;;;;;5027635;28;20035;-73
2023/08/24 11:20:52;;;;;;;12.85;4.38;;;;;;;;;;5027383;28;20036;-73
2023/08/24 11:23:22;;;;;;;13.10;4.45;;;;;;;;;;5029410;28;20041;-73
2023/08/24 11:25:57;;;;;;;9.38;4.40;;;;;;;;;;5030108;28;20025;-73
2023/08/24 11:28:29;;;;;;;7.38;4.32;;;;;;;;;;5029704;28;20040;-76
2023/08/24 11:30:57;;;;;;;11.70;4.13;;;;;;;;;;5028337;28;20474;-83
2023/08/24 11:33:30;;;;;;;10.35;4.05;;;;;;;;;;5027895;28;20079;-76
2023/08/24 11:35:56;;;;;;;8.50;4.13;;;;;;;;;;5026760;28;20124;-81
2023/08/24 11:38:22;;;;;;;15.50;4.10;;;;;;;;;;5027761;28;20036;-74
2023/08/24 11:40:47;;;;;;;9.75;4.53;;;;;;;;;;5030372;28;20033;-79
2023/08/24 11:43:22;;;;;;;16.75;4.15;;;;;;;;;;5035244;28;20486;-91
2023/08/24 11:45:47;;;;;;;;;;;;;;;;;;5023753;28;20084;-86
2023/08/24 11:48:12;;;;;;;18.17;4.97;;;;;;;;;;5028595;28;20014;-87
2023/08/24 11:50:38;;;;;;;11.32;4.75;;;;;;;;;;5031397;28;20475;-89
2023/08/24 11:53:06;;;;;;;13.85;5.10;;;;;;;;;;5030015;28;20143;-90
2023/08/24 11:55:32;;;;;;;10.02;4.90;;;;;;;;;;5030206;28;20122;-79
2023/08/24 11:57:57;;;;;;;12.18;5.28;;;;;;;;;;5030208;28;20061;-83
2023/08/24 12:00:24;;;;;;;11.48;5.28;;;;;;;;;;5030721;28;20029;-75
2023/08/24 12:02:50;;;;;;;12.98;5.80;;;;;;;;;;5028429;28;20025;-85
2023/08/24 12:05:23;;;;;;;12.65;6.03;;;;;;;;;;5034697;28;20083;-74
2023/08/24 12:07:48;;;;;;;14.80;6.45;;;;;;;;;;5030469;28;20128;-89
2023/08/24 12:10:14;;;;;;;10.30;5.85;;;;;;;;;;5035693;28;20474;-95
2023/08/24 12:12:39;;;;;;;11.73;6.15;;;;;;;;;;5035555;28;20475;-89
2023/08/24 12:15:05;;;;;;;14.63;6.57;;;;;;;;;;5033514;28;20068;-88
2023/08/24 12:17:42;;;;;;;16.77;7.20;;;;;;;;;;5031022;28;20024;-90
2023/08/24 12:20:12;;;;;;;13.13;6.63;;;;;;;;;;5033599;28;20026;-93
2023/08/24 12:22:38;;;;;;;14.65;6.68;;;;;;;;;;5018980;28;20026;-92
2023/08/24 12:25:03;;;;;;;13.13;7.30;;;;;;;;;;5032265;28;20052;-86
2023/08/24 12:27:29;;;;;;;14.00;8.02;;;;;;;;;;5030758;28;20305;-80
2023/08/24 12:29:54;;;;;;;14.55;7.85;;;;;;;;;;5029339;28;20033;-83
2023/08/24 12:32:23;;;;;;;13.63;8.30;;;;;;;;;;5029306;28;20588;-89
2023/08/24 12:34:48;;;;;;;14.85;8.13;;;;;;;;;;5031830;28;20597;-82
2023/08/24 12:37:14;;;;;;;11.45;7.75;;;;;;;;;;5029195;28;20040;-92
2023/08/24 12:39:39;;;;;;;15.88;7.75;;;;;;;;;;5031598;28;20028;-74
2023/08/24 12:42:06;;;;;;;12.45;6.97;;;;;;;;;;5032650;28;20041;-88
2023/08/24 12:44:32;;;;;;;12.15;6.72;;;;;;;;;;5038369;28;20191;-94
2023/08/24 12:46:58;;;;;;;10.23;7.25;;;;;;;;;;5031969;28;20406;-90
2023/08/24 12:49:23;;;;;;;15.20;7.10;;;;;;;;;;5030384;28;20366;-90
2023/08/24 12:51:49;;;;;;;13.95;7.80;;;;;;;;;;5032839;28;20032;-91
2023/08/24 12:54:14;;;;;;;15.23;7.88;;;;;;;;;;5043006;28;20374;-91
2023/08/24 12:56:43;;;;;;;11.63;7.50;;;;;;;;;;5028638;28;20022;-91
2023/08/24 12:59:09;;;;;;;12.70;7.45;;;;;;;;;;5034533;28;20060;-94
2023/08/24 13:01:35;;;;;;;13.07;7.05;;;;;;;;;;5053197;28;20029;-85
2023/08/24 13:04:01;;;;;;;13.82;6.72;;;;;;;;;;5045099;28;20017;-73
2023/08/24 13:06:27;;;;;;;13.77;8.32;;;;;;;;;;5033171;28;20036;-95
2023/08/24 13:08:53;;;;;;;14.55;8.95;;;;;;;;;;5032487;28;20029;-79
2023/08/24 13:11:18;;;;;;;15.82;9.20;;;;;;;;;;5035914;28;20100;-86
2023/08/24 13:13:45;;;;;;;14.65;9.85;;;;;;;;;;5040716;28;20037;-86
2023/08/24 13:16:11;;;;;;;11.57;7.18;;;;;;;;;;5033230;28;20041;-89
2023/08/24 13:18:36;;;;;;;11.93;6.75;;;;;;;;;;5029631;28;20083;-89
2023/08/24 13:21:01;;;;;;;12.35;6.35;;;;;;;;;;5033500;28;20017;-93
2023/08/24 13:23:27;;;;;;;11.45;6.80;;;;;;;;;;5033950;28;20738;-92
2023/08/24 13:25:52;;;;;;;10.60;6.05;;;;;;;;;;5032785;28;20036;-77
2023/08/24 13:28:17;;;;;;;10.75;5.50;;;;;;;;;;5028767;28;20041;-79
2023/08/24 13:30:43;;;;;;;11.10;5.53;;;;;;;;;;5029564;28;20040;-74
2023/08/24 13:33:08;;;;;;;9.93;5.45;;;;;;;;;;5035884;28;20025;-74
2023/08/24 13:35:34;;;;;;;9.20;5.18;;;;;;;;;;5035132;28;20072;-74
2023/08/24 13:38:00;;;;;;;9.73;5.50;;;;;;;;;;5037807;28;20030;-75
2023/08/24 13:40:25;;;;;;;11.38;5.28;;;;;;;;;;5055690;28;20087;-75
2023/08/24 13:42:50;;;;;;;13.07;5.70;;;;;;;;;;5053924;28;20037;-74
2023/08/24 13:45:16;;;;;;;11.10;5.32;;;;;;;;;;5049222;28;20234;-74
2023/08/24 13:47:41;;;;;;;10.32;5.00;;;;;;;;;;5034126;28;20026;-74
2023/08/24 13:50:07;;;;;;;7.35;4.85;;;;;;;;;;5028335;28;20041;-74
2023/08/24 13:52:33;;;;;;;8.02;5.10;;;;;;;;;;5026642;28;20129;-74
2023/08/24 13:54:59;;;;;;;10.43;4.97;;;;;;;;;;5031120;28;20030;-73
2023/08/24 13:57:24;;;;;;;10.07;5.40;;;;;;;;;;5031108;28;20091;-73
2023/08/24 13:59:50;;;;;;;12.15;5.28;;;;;;;;;;5028590;28;20100;-73
2023/08/24 14:02:15;;;;;;;11.75;5.00;;;;;;;;;;5029395;28;20041;-73
2023/08/24 14:04:41;;;;;;;8.55;5.50;;;;;;;;;;5039194;28;20049;-71
2023/08/24 14:07:06;;;;;;;9.63;5.40;;;;;;;;;;5041348;28;20021;-73
2023/08/24 14:09:32;;;;;;;10.20;5.10;;;;;;;;;;5048517;28;20031;-73
2023/08/24 14:11:58;;;;;;;11.48;5.60;;;;;;;;;;5050818;28;20029;-73
2023/08/24 14:14:23;;;;;;;11.25;5.03;;;;;;;;;;5051655;28;20029;-72
2023/08/24 14:16:54;;;;;;;8.57;5.00;;;;;;;;;;5052473;28;20506;-72
2023/08/24 14:19:19;;;;;;;9.25;4.63;;;;;;;;;;5052292;28;20054;-72
2023/08/24 14:21:45;;;;;;;8.15;4.75;;;;;;;;;;5051508;28;20173;-72
2023/08/24 14:24:10;;;;;;;11.55;5.03;;;;;;;;;;5051714;28;20113;-72
2023/08/24 14:26:37;;;;;;;8.57;4.70;;;;;;;;;;5051875;28;20041;-72
2023/08/24 14:29:02;;;;;;;9.00;4.70;;;;;;;;;;5049479;28;20107;-73
2023/08/24 14:31:31;;;;;;;7.03;4.25;;;;;;;;;;5030544;28;20580;-73
2023/08/24 14:33:57;;;;;;;6.75;4.60;;;;;;;;;;5031386;28;20041;-73
2023/08/24 14:36:23;;;;;;;9.45;4.30;;;;;;;;;;5031310;28;20033;-73